Time;durP1;ratioP1;P1;durP2;ratioP2;P2;SDS_P1;SDS_P2;PMS_P1;PMS_P2;Temp;Humidity;BMP_temperature;BMP_pressure;BME280_temperature;BME280_humidity;BME280_pressure;Samples;Min_cycle;Max_cycle;Signal;HPM_P1;HPM_P2
2022/08/17 00:02:02;;;;;;;4.10;3.80;;;24.20;50.70;;;;;;5035749;28;20234;-80
2022/08/17 00:04:29;;;;;;;5.60;4.15;;;24.10;50.60;;;;;;5019336;28;20292;-81
2022/08/17 00:06:57;;;;;;;4.53;4.18;;;24.10;50.60;;;;;;5036607;28;20200;-81
2022/08/17 00:09:24;;;;;;;3.90;3.60;;;24.10;50.70;;;;;;5035474;28;20216;-81
2022/08/17 00:11:51;;;;;;;4.47;4.03;;;24.10;50.70;;;;;;5036412;28;20215;-80
2022/08/17 00:14:18;;;;;;;3.92;3.63;;;24.10;50.70;;;;;;5035261;28;20200;-80
2022/08/17 00:16:47;;;;;;;4.00;3.70;;;24.10;50.80;;;;;;5035126;28;20734;-80
2022/08/17 00:19:15;;;;;;;4.50;4.20;;;24.00;50.70;;;;;;5034944;28;20220;-81
2022/08/17 00:21:44;;;;;;;4.45;4.13;;;24.00;50.70;;;;;;5035099;28;20196;-80
2022/08/17 00:24:13;;;;;;;4.13;3.83;;;24.00;50.70;;;;;;5035202;28;20269;-80
2022/08/17 00:26:40;;;;;;;3.60;3.30;;;24.00;50.80;;;;;;5035751;28;20250;-80
2022/08/17 00:29:07;;;;;;;4.40;4.10;;;24.00;50.80;;;;;;5018501;28;20611;-80
2022/08/17 00:31:35;;;;;;;4.28;3.92;;;24.00;51.40;;;;;;5035508;28;20192;-81
2022/08/17 00:34:03;;;;;;;4.22;3.92;;;24.00;50.80;;;;;;5036114;28;20287;-81
2022/08/17 00:36:29;;;;;;;4.22;3.78;;;24.00;50.90;;;;;;5035198;28;20202;-81
2022/08/17 00:38:56;;;;;;;4.53;4.13;;;24.00;50.80;;;;;;5034581;28;20668;-80
2022/08/17 00:41:25;;;;;;;4.43;4.03;;;24.00;50.90;;;;;;5035586;28;20196;-80
2022/08/17 00:43:54;;;;;;;3.92;3.63;;;23.90;50.70;;;;;;5034936;28;20204;-81
2022/08/17 00:46:23;;;;;;;3.95;3.65;;;23.90;50.70;;;;;;5034899;28;20192;-81
2022/08/17 00:48:50;;;;;;;4.00;3.70;;;23.90;50.70;;;;;;5034361;28;20231;-80
2022/08/17 00:51:23;;;;;;;4.05;3.75;;;23.90;50.80;;;;;;5034434;28;20613;-81
2022/08/17 00:53:51;;;;;;;3.80;3.50;;;23.90;50.80;;;;;;5036393;28;20187;-81
2022/08/17 00:56:20;;;;;;;3.97;3.67;;;23.90;50.90;;;;;;5034891;28;20234;-80
2022/08/17 00:58:49;;;;;;;3.75;3.50;;;23.90;50.80;;;;;;5034737;28;20223;-80
2022/08/17 01:01:15;;;;;;;3.95;3.67;;;23.90;51.60;;;;;;5034535;28;20254;-80
2022/08/17 01:03:43;;;;;;;3.72;3.50;;;23.90;50.90;;;;;;5034551;28;20206;-81
2022/08/17 01:06:10;;;;;;;4.18;3.88;;;23.80;50.70;;;;;;5034446;28;20232;-81
2022/08/17 01:08:39;;;;;;;3.80;3.60;;;23.80;50.90;;;;;;5035336;28;20252;-81
2022/08/17 01:11:06;;;;;;;4.10;3.80;;;23.80;50.90;;;;;;5035837;28;20192;-80
2022/08/17 01:13:35;;;;;;;4.20;3.80;;;23.80;51.00;;;;;;5034257;28;20298;-81
2022/08/17 01:16:06;;;;;;;4.30;4.00;;;23.80;51.00;;;;;;5034294;28;20568;-80
2022/08/17 01:18:33;;;;;;;6.15;4.00;;;23.80;51.00;;;;;;5036042;28;20238;-80
2022/08/17 01:21:03;;;;;;;4.22;3.92;;;23.80;51.00;;;;;;5034463;28;20220;-81
2022/08/17 01:23:31;;;;;;;4.00;3.70;;;23.80;51.10;;;;;;5034439;28;20214;-80
2022/08/17 01:26:00;;;;;;;3.70;3.50;;;23.70;51.00;;;;;;5034527;28;20184;-81
2022/08/17 01:28:29;;;;;;;4.30;4.00;;;23.70;51.00;;;;;;5033966;28;20729;-80
2022/08/17 01:30:57;;;;;;;5.75;4.32;;;23.70;51.10;;;;;;5034104;28;20663;-81
2022/08/17 01:33:24;;;;;;;4.35;4.05;;;23.80;51.10;;;;;;5017868;28;20674;-81
2022/08/17 01:35:52;;;;;;;4.78;4.18;;;23.70;51.00;;;;;;5017881;28;20258;-80
2022/08/17 01:38:19;;;;;;;4.22;3.92;;;23.70;51.10;;;;;;5033813;28;20246;-81
2022/08/17 01:40:49;;;;;;;4.65;4.25;;;23.70;51.10;;;;;;5017779;28;20216;-81
2022/08/17 01:43:21;;;;;;;4.38;3.97;;;23.70;51.20;;;;;;5035714;28;20184;-81
2022/08/17 01:45:50;;;;;;;4.20;3.90;;;23.70;51.20;;;;;;5034032;28;20200;-81
2022/08/17 01:48:18;;;;;;;4.63;4.25;;;23.70;51.20;;;;;;5033706;28;20219;-80
2022/08/17 01:50:46;;;;;;;4.30;4.00;;;23.70;51.20;;;;;;5033918;28;20655;-81
2022/08/17 01:53:15;;;;;;;4.50;4.10;;;23.70;51.30;;;;;;5033861;28;20196;-81
2022/08/17 01:55:45;;;;;;;4.35;4.00;;;23.60;51.20;;;;;;5033518;28;20200;-80
2022/08/17 01:58:13;;;;;;;4.40;4.00;;;23.60;51.30;;;;;;5033528;28;20220;-80
2022/08/17 02:00:41;;;;;;;4.38;3.97;;;23.60;51.20;;;;;;5033461;28;20248;-81
2022/08/17 02:03:08;;;;;;;4.28;3.90;;;23.60;51.30;;;;;;5033193;28;20220;-81
2022/08/17 02:05:35;;;;;;;4.07;3.88;;;23.60;51.30;;;;;;5033753;28;20291;-80
2022/08/17 02:08:03;;;;;;;4.13;3.83;;;23.50;51.30;;;;;;5033719;28;20303;-80
2022/08/17 02:10:31;;;;;;;4.03;3.72;;;23.50;51.30;;;;;;5033105;28;20214;-80
2022/08/17 02:12:58;;;;;;;4.40;4.00;;;23.50;51.40;;;;;;5033485;28;20314;-80
2022/08/17 02:15:27;;;;;;;3.80;3.53;;;23.50;51.40;;;;;;5032987;28;20203;-80
2022/08/17 02:17:54;;;;;;;4.30;3.92;;;23.50;51.40;;;;;;5033025;28;20577;-80
2022/08/17 02:20:21;;;;;;;4.10;3.80;;;23.50;51.50;;;;;;5032992;28;20219;-80
2022/08/17 02:22:48;;;;;;;4.20;3.80;;;23.50;51.50;;;;;;5032918;28;20317;-80
2022/08/17 02:25:17;;;;;;;4.20;3.90;;;23.50;51.50;;;;;;5033000;28;20668;-81
2022/08/17 02:27:46;;;;;;;4.78;4.40;;;23.50;51.50;;;;;;5032705;28;20238;-80
2022/08/17 02:30:14;;;;;;;4.50;4.10;;;23.50;51.50;;;;;;5033238;28;20200;-80
2022/08/17 02:32:43;;;;;;;4.45;4.15;;;23.50;51.50;;;;;;5016649;28;20204;-80
2022/08/17 02:35:12;;;;;;;4.13;3.80;;;23.50;51.50;;;;;;5032969;28;20234;-80
2022/08/17 02:37:40;;;;;;;4.53;4.13;;;23.50;51.50;;;;;;5032754;28;20323;-80
2022/08/17 02:40:08;;;;;;;4.05;3.75;;;23.50;51.50;;;;;;5032339;28;20211;-80
2022/08/17 02:42:38;;;;;;;4.05;3.75;;;23.40;51.40;;;;;;5032829;28;20294;-81
2022/08/17 02:45:07;;;;;;;4.05;3.75;;;23.40;51.40;;;;;;5032902;28;20200;-81
2022/08/17 02:47:34;;;;;;;5.32;4.13;;;23.40;51.40;;;;;;5032621;28;20231;-81
2022/08/17 02:50:02;;;;;;;4.20;3.80;;;23.40;51.60;;;;;;5032686;28;20195;-80
2022/08/17 02:52:32;;;;;;;4.70;3.90;;;23.40;51.60;;;;;;5032598;28;20199;-80
2022/08/17 02:54:59;;;;;;;4.43;4.03;;;23.40;51.60;;;;;;5032652;28;20204;-80
2022/08/17 02:57:26;;;;;;;4.13;3.83;;;23.40;51.60;;;;;;5032649;28;20207;-80
2022/08/17 02:59:53;;;;;;;4.60;4.25;;;23.40;51.60;;;;;;5032699;28;20224;-81
2022/08/17 03:02:20;;;;;;;4.25;3.92;;;23.40;51.60;;;;;;5032600;28;20349;-81
2022/08/17 03:04:47;;;;;;;3.85;3.65;;;23.40;51.60;;;;;;5033454;28;20663;-80
2022/08/17 03:07:16;;;;;;;4.18;3.80;;;23.40;51.60;;;;;;5032928;28;20221;-80
2022/08/17 03:09:43;;;;;;;4.45;4.07;;;23.30;51.70;;;;;;5032635;28;20258;-81
2022/08/17 03:12:12;;;;;;;3.92;3.63;;;23.30;51.70;;;;;;5017329;28;20200;-80
2022/08/17 03:14:39;;;;;;;4.13;3.65;;;23.30;51.80;;;;;;5032880;28;20669;-80
2022/08/17 03:17:06;;;;;;;4.20;3.83;;;23.40;51.80;;;;;;5037421;28;20203;-80
2022/08/17 03:19:33;;;;;;;4.47;4.07;;;23.30;51.80;;;;;;5021005;28;20224;-80
2022/08/17 03:22:00;;;;;;;4.00;3.70;;;23.30;51.80;;;;;;5037639;28;20200;-80
2022/08/17 03:24:29;;;;;;;4.55;4.15;;;23.30;51.80;;;;;;5040145;28;20224;-80
2022/08/17 03:26:56;;;;;;;4.47;4.18;;;23.40;51.90;;;;;;5037024;28;20193;-80
2022/08/17 03:29:24;;;;;;;4.45;4.10;;;23.40;51.80;;;;;;5037335;28;20216;-80
2022/08/17 03:31:51;;;;;;;4.75;4.35;;;23.40;51.80;;;;;;5036408;28;20206;-80
2022/08/17 03:34:18;;;;;;;4.60;4.20;;;23.40;51.70;;;;;;5036438;28;20204;-81
2022/08/17 03:36:45;;;;;;;4.85;3.88;;;23.40;51.60;;;;;;5037275;28;20602;-80
2022/08/17 03:39:12;;;;;;;4.50;4.10;;;23.50;51.60;;;;;;5037489;28;20303;-80
2022/08/17 03:41:40;;;;;;;4.68;4.28;;;23.50;51.60;;;;;;5036118;28;20216;-80
2022/08/17 03:44:09;;;;;;;4.53;4.13;;;23.50;51.50;;;;;;5036360;28;20184;-80
2022/08/17 03:57:36;;;;;;;5.10;4.28;;;23.50;51.40;;;;;;5035963;28;20227;-80
2022/08/17 04:00:04;;;;;;;4.53;4.15;;;23.50;51.50;;;;;;5035723;28;20230;-80
2022/08/17 04:02:39;;;;;;;4.50;4.20;;;23.50;51.50;;;;;;5036899;28;20242;-80
2022/08/17 04:05:06;;;;;;;4.63;4.32;;;23.50;51.50;;;;;;5035335;28;20204;-80
2022/08/17 04:07:33;;;;;;;4.30;4.00;;;23.50;51.50;;;;;;5035221;28;20219;-80
2022/08/17 04:10:00;;;;;;;4.47;4.10;;;23.50;51.50;;;;;;5035339;28;20196;-81
2022/08/17 04:12:29;;;;;;;4.38;3.97;;;23.50;51.40;;;;;;5035425;28;20207;-80
2022/08/17 04:14:57;;;;;;;4.35;4.00;;;23.50;51.40;;;;;;5035374;28;20196;-81
2022/08/17 04:17:26;;;;;;;5.30;4.40;;;23.50;51.50;;;;;;5035187;28;20195;-80
2022/08/17 04:19:54;;;;;;;4.55;4.15;;;23.50;51.50;;;;;;5034940;28;20282;-80
2022/08/17 04:22:21;;;;;;;4.30;3.90;;;23.50;51.50;;;;;;5035311;28;20258;-81
2022/08/17 04:24:47;;;;;;;4.40;4.00;;;23.40;51.40;;;;;;5034982;28;20243;-80
2022/08/17 04:27:15;;;;;;;17.33;4.00;;;23.40;51.40;;;;;;5034479;28;20204;-80
2022/08/17 04:29:41;;;;;;;4.70;4.30;;;23.40;51.40;;;;;;5037494;28;20200;-80
2022/08/17 04:32:10;;;;;;;4.13;3.72;;;23.40;51.40;;;;;;5020203;28;20192;-80
2022/08/17 04:34:37;;;;;;;4.10;3.80;;;23.40;51.40;;;;;;5035395;28;20200;-80
2022/08/17 04:37:04;;;;;;;4.05;3.70;;;23.40;51.50;;;;;;5034904;28;20207;-80
2022/08/17 04:39:31;;;;;;;4.60;4.20;;;23.40;51.50;;;;;;5018167;28;20224;-80
2022/08/17 04:42:06;;;;;;;5.25;4.18;;;23.40;51.50;;;;;;5034724;28;20211;-81
2022/08/17 04:44:34;;;;;;;4.35;4.05;;;23.40;51.60;;;;;;5019952;28;20199;-81
2022/08/17 04:47:01;;;;;;;4.53;4.22;;;23.40;51.60;;;;;;5034898;28;20200;-81
2022/08/17 04:49:29;;;;;;;4.65;4.25;;;23.40;51.60;;;;;;5034698;28;20212;-80
2022/08/17 04:51:57;;;;;;;4.40;3.78;;;23.40;51.60;;;;;;5018248;28;20204;-80
2022/08/17 04:54:24;;;;;;;4.55;4.15;;;23.40;51.70;;;;;;5036007;28;20196;-80
2022/08/17 04:56:51;;;;;;;4.07;3.78;;;23.40;51.80;;;;;;5034550;28;20623;-80
2022/08/17 04:59:19;;;;;;;4.30;4.00;;;23.30;51.60;;;;;;5034434;28;20226;-80
2022/08/17 05:01:48;;;;;;;4.20;3.90;;;23.30;52.20;;;;;;5034363;28;20212;-81
2022/08/17 05:04:16;;;;;;;4.35;4.05;;;23.40;51.90;;;;;;5034421;28;20200;-76
2022/08/17 05:06:45;;;;;;;4.53;4.15;;;23.30;51.80;;;;;;5034448;28;20203;-77
2022/08/17 05:09:12;;;;;;;4.80;4.15;;;23.40;51.70;;;;;;5034836;28;20216;-77
2022/08/17 05:11:40;;;;;;;5.55;4.72;;;23.40;52.40;;;;;;5034238;28;20651;-77
2022/08/17 05:14:06;;;;;;;4.85;4.38;;;23.30;52.80;;;;;;5034198;28;20196;-76
2022/08/17 05:16:34;;;;;;;4.80;4.30;;;23.10;53.10;;;;;;5036101;28;20196;-76
2022/08/17 05:19:01;;;;;;;4.70;4.30;;;23.00;53.30;;;;;;5034624;28;20215;-76
2022/08/17 05:21:28;;;;;;;5.18;4.78;;;22.90;53.60;;;;;;5034063;28;20219;-76
2022/08/17 05:23:57;;;;;;;5.78;4.95;;;22.90;53.80;;;;;;5035344;28;20271;-77
2022/08/17 05:26:25;;;;;;;5.07;4.60;;;22.80;54.20;;;;;;5034557;28;20200;-77
2022/08/17 05:28:52;;;;;;;4.93;4.53;;;22.70;54.40;;;;;;5033616;28;20216;-76
2022/08/17 05:31:19;;;;;;;4.97;4.55;;;22.60;54.60;;;;;;5035117;28;20203;-77
2022/08/17 05:33:46;;;;;;;5.32;4.82;;;22.60;54.90;;;;;;5034804;28;20200;-76
2022/08/17 05:36:13;;;;;;;5.30;4.82;;;22.40;55.20;;;;;;5033504;28;20204;-76
2022/08/17 05:38:40;;;;;;;4.60;4.20;;;22.40;55.20;;;;;;5033118;28;20278;-75
2022/08/17 05:41:09;;;;;;;5.72;5.13;;;22.50;55.20;;;;;;5033314;28;20216;-77
2022/08/17 05:43:37;;;;;;;6.05;4.82;;;22.60;54.90;;;;;;5033455;28;20200;-76
2022/08/17 05:46:06;;;;;;;5.32;4.82;;;22.70;55.00;;;;;;5033435;28;20577;-76
2022/08/17 05:48:35;;;;;;;5.10;4.70;;;22.80;55.00;;;;;;5034802;28;20216;-75
2022/08/17 05:51:06;;;;;;;5.60;4.43;;;22.90;54.80;;;;;;5033517;28;20737;-77
2022/08/17 05:53:45;;;;;;;4.93;4.07;;;23.10;54.40;;;;;;5033539;28;20203;-77
2022/08/17 05:56:18;;;;;;;4.97;4.57;;;23.30;53.80;;;;;;5033326;28;20199;-77
2022/08/17 05:58:50;;;;;;;4.55;4.20;;;23.60;53.30;;;;;;5033352;28;20227;-77
2022/08/17 06:01:27;;;;;;;4.80;4.40;;;23.90;52.70;;;;;;5032967;28;20212;-77
2022/08/17 06:03:57;;;;;;;5.07;4.57;;;24.10;52.20;;;;;;5033199;28;20261;-77
2022/08/17 06:06:31;;;;;;;5.55;5.00;;;24.40;51.80;;;;;;5032965;28;20208;-77
2022/08/17 06:09:05;;;;;;;4.80;4.38;;;24.70;51.30;;;;;;5034271;28;20283;-76
2022/08/17 06:11:36;;;;;;;5.47;4.75;;;24.90;50.70;;;;;;5032910;28;20188;-77
2022/08/17 06:14:20;;;;;;;4.90;4.40;;;25.10;50.20;;;;;;5032951;28;20196;-76
2022/08/17 06:16:49;;;;;;;5.00;4.50;;;25.30;49.90;;;;;;5033044;28;20666;-78
2022/08/17 06:19:19;;;;;;;5.55;4.47;;;25.40;49.60;;;;;;5032938;28;20220;-78
2022/08/17 06:21:47;;;;;;;5.22;4.82;;;25.40;49.40;;;;;;5016470;28;20302;-76
2022/08/17 06:24:26;;;;;;;6.00;4.93;;;25.40;49.30;;;;;;5033595;28;20211;-77
2022/08/17 06:26:55;;;;;;;5.25;4.53;;;25.60;49.20;;;;;;5032996;28;20279;-76
2022/08/17 06:29:27;;;;;;;6.47;4.28;;;25.70;48.90;;;;;;5032548;28;20259;-77
2022/08/17 06:31:54;;;;;;;4.80;4.40;;;25.80;48.60;;;;;;5016447;28;20189;-76
2022/08/17 06:34:21;;;;;;;4.80;4.38;;;26.00;48.20;;;;;;5033285;28;20235;-76
2022/08/17 06:36:51;;;;;;;5.10;4.45;;;26.10;47.90;;;;;;5032684;28;20196;-76
2022/08/17 06:39:28;;;;;;;5.13;4.60;;;26.20;47.60;;;;;;5032655;28;20302;-76
2022/08/17 06:42:04;;;;;;;4.82;4.43;;;26.20;47.40;;;;;;5032628;28;20208;-77
2022/08/17 06:44:34;;;;;;;4.70;4.30;;;26.30;47.30;;;;;;5032815;28;20220;-76
2022/08/17 06:47:03;;;;;;;5.30;4.60;;;26.40;47.10;;;;;;5033962;28;20188;-76
2022/08/17 06:49:33;;;;;;;4.90;4.40;;;26.40;46.90;;;;;;5032206;28;20654;-76
2022/08/17 06:52:02;;;;;;;5.22;4.20;;;26.50;46.80;;;;;;5036659;28;20223;-78
2022/08/17 06:54:33;;;;;;;4.82;4.07;;;26.60;46.50;;;;;;5036373;28;20704;-78
2022/08/17 06:57:05;;;;;;;4.75;4.25;;;26.70;46.20;;;;;;5036528;28;20199;-76
2022/08/17 06:59:35;;;;;;;5.20;4.38;;;26.90;45.90;;;;;;5036352;28;20722;-76
2022/08/17 07:02:04;;;;;;;4.72;4.35;;;27.00;45.60;;;;;;5036305;28;20235;-78
2022/08/17 07:04:31;;;;;;;4.63;4.20;;;27.00;45.40;;;;;;5036306;28;20659;-78
2022/08/17 07:07:00;;;;;;;4.43;4.03;;;27.10;45.30;;;;;;5036726;28;20282;-77
2022/08/17 07:09:29;;;;;;;4.60;4.20;;;27.20;45.20;;;;;;5037097;28;20585;-76
2022/08/17 07:11:59;;;;;;;4.50;4.10;;;27.30;45.00;;;;;;5036282;28;20200;-78
2022/08/17 07:14:32;;;;;;;4.90;4.40;;;27.40;44.70;;;;;;5037000;28;20222;-78
2022/08/17 07:17:01;;;;;;;5.35;4.40;;;27.50;44.50;;;;;;5040215;28;20198;-78
2022/08/17 07:19:31;;;;;;;4.18;3.78;;;27.50;44.20;;;;;;5036361;28;20220;-78
2022/08/17 07:22:04;;;;;;;4.45;4.10;;;27.60;44.10;;;;;;5036177;28;20677;-78
2022/08/17 07:24:38;;;;;;;4.97;4.18;;;27.50;44.00;;;;;;5052887;28;20195;-78
2022/08/17 07:27:10;;;;;;;4.75;4.35;;;27.60;44.00;;;;;;5044405;28;20199;-78
2022/08/17 07:29:42;;;;;;;4.55;4.15;;;27.70;43.70;;;;;;5038452;28;20218;-77
2022/08/17 07:32:10;;;;;;;4.43;3.90;;;27.90;43.60;;;;;;5037936;28;20194;-77
2022/08/17 07:35:09;;;;;;;4.40;4.00;;;27.90;43.40;;;;;;5038072;28;20200;-76
2022/08/17 07:37:37;;;;;;;4.53;3.88;;;28.00;43.10;;;;;;5037404;28;20211;-77
2022/08/17 07:40:25;;;;;;;4.35;4.05;;;28.10;43.00;;;;;;5037488;28;20237;-78
2022/08/17 07:43:22;;;;;;;4.22;3.85;;;28.10;42.90;;;;;;5038417;28;20204;-76
2022/08/17 07:48:47;;;;;;;4.18;3.80;;;28.20;42.60;;;;;;5035747;28;20215;-78
2022/08/17 07:51:19;;;;;;;4.30;3.92;;;28.30;42.40;;;;;;5035624;28;20210;-78
2022/08/17 07:53:46;;;;;;;4.30;3.78;;;28.40;42.10;;;;;;5035476;28;20207;-78
2022/08/17 07:56:30;;;;;;;4.03;3.60;;;28.40;42.10;;;;;;5019038;28;20230;-78
2022/08/17 07:59:06;;;;;;;4.53;3.95;;;28.40;42.20;;;;;;5036687;28;20215;-77
2022/08/17 08:01:36;;;;;;;3.90;3.60;;;28.30;42.40;;;;;;5035413;28;20218;-78
2022/08/17 08:04:19;;;;;;;4.05;3.72;;;28.20;43.20;;;;;;5035341;28;20191;-78
2022/08/17 08:06:48;;;;;;;4.43;4.03;;;28.10;42.80;;;;;;5035707;28;20246;-76
2022/08/17 08:09:39;;;;;;;3.83;3.50;;;28.00;43.10;;;;;;5035299;28;20329;-78
2022/08/17 08:12:32;;;;;;;4.00;3.70;;;27.80;43.30;;;;;;5036295;28;20195;-77
2022/08/17 08:15:01;;;;;;;3.80;3.50;;;27.70;43.70;;;;;;5035740;28;20199;-76
2022/08/17 08:17:34;;;;;;;4.25;3.90;;;27.50;43.90;;;;;;5034994;28;20282;-78
2022/08/17 08:20:04;;;;;;;4.22;3.90;;;27.40;44.10;;;;;;5034944;28;20192;-76
2022/08/17 08:22:37;;;;;;;4.40;4.00;;;27.30;44.40;;;;;;5035110;28;20278;-76
2022/08/17 08:25:13;;;;;;;4.53;4.20;;;27.20;44.50;;;;;;5036280;28;20184;-76
2022/08/17 08:27:47;;;;;;;4.03;3.72;;;27.10;44.70;;;;;;5036511;28;20207;-77
2022/08/17 08:30:15;;;;;;;3.80;3.50;;;27.10;45.00;;;;;;5034877;28;20207;-76
2022/08/17 08:33:06;;;;;;;4.22;3.83;;;27.00;45.00;;;;;;5034794;28;20658;-78
2022/08/17 08:35:36;;;;;;;4.38;3.97;;;26.90;45.10;;;;;;5021125;28;20202;-78
2022/08/17 08:38:10;;;;;;;4.00;3.60;;;26.90;45.30;;;;;;5035063;28;20587;-78
2022/08/17 08:40:48;;;;;;;3.97;3.67;;;26.90;45.30;;;;;;5035511;28;20200;-77
2022/08/17 08:43:21;;;;;;;4.22;3.90;;;26.80;45.30;;;;;;5037868;28;20211;-77
2022/08/17 08:45:52;;;;;;;4.05;3.70;;;26.80;45.40;;;;;;5037651;28;20204;-76
2022/08/17 08:48:40;;;;;;;4.30;3.90;;;26.80;45.40;;;;;;5018268;28;20686;-76
2022/08/17 08:51:10;;;;;;;3.85;3.55;;;26.80;45.40;;;;;;5034548;28;20207;-76
2022/08/17 08:53:42;;;;;;;4.05;3.75;;;26.80;45.40;;;;;;5034713;28;20704;-78
2022/08/17 08:56:11;;;;;;;3.95;3.58;;;26.80;45.60;;;;;;5036133;28;20609;-77
2022/08/17 08:58:46;;;;;;;3.95;3.65;;;26.70;45.50;;;;;;5035293;28;20224;-78
2022/08/17 09:01:17;;;;;;;4.07;3.78;;;26.70;45.60;;;;;;5036590;28;20217;-78
2022/08/17 09:03:52;;;;;;;3.95;3.65;;;26.70;45.60;;;;;;5036019;28;20196;-76
2022/08/17 09:06:31;;;;;;;3.80;3.50;;;26.70;45.70;;;;;;5034933;28;20192;-78
2022/08/17 09:09:05;;;;;;;4.05;3.60;;;26.60;45.70;;;;;;5035033;28;20223;-78
2022/08/17 09:11:35;;;;;;;4.05;3.75;;;26.60;45.80;;;;;;5035807;28;20196;-78
2022/08/17 09:14:08;;;;;;;3.85;3.55;;;26.60;45.90;;;;;;5036125;28;20180;-78
2022/08/17 09:16:39;;;;;;;4.82;3.97;;;26.50;45.90;;;;;;5035449;28;20195;-78
2022/08/17 09:19:11;;;;;;;3.70;3.50;;;26.50;46.00;;;;;;5034491;28;20729;-78
2022/08/17 09:21:41;;;;;;;4.03;3.72;;;26.50;46.10;;;;;;5034630;28;20678;-78
2022/08/17 09:24:11;;;;;;;3.75;3.45;;;26.50;46.10;;;;;;5035244;28;20195;-76
2022/08/17 09:26:41;;;;;;;3.97;3.67;;;26.50;46.20;;;;;;5034617;28;20283;-78
2022/08/17 09:29:10;;;;;;;3.92;3.63;;;26.50;46.10;;;;;;5035452;28;20222;-76
2022/08/17 09:31:46;;;;;;;4.07;3.78;;;26.50;46.10;;;;;;5035104;28;20716;-76
2022/08/17 09:34:17;;;;;;;4.40;4.10;;;26.50;46.30;;;;;;5035895;28;20188;-78
2022/08/17 09:36:47;;;;;;;4.07;3.67;;;26.50;46.50;;;;;;5034685;28;20668;-77
2022/08/17 09:39:16;;;;;;;3.70;3.40;;;26.50;46.60;;;;;;5034648;28;20230;-76
2022/08/17 09:41:46;;;;;;;3.70;3.40;;;26.50;46.80;;;;;;5035437;28;20222;-76
2022/08/17 09:44:16;;;;;;;4.30;3.90;;;26.50;46.90;;;;;;5034676;28;20267;-76
2022/08/17 09:46:47;;;;;;;4.10;3.80;;;26.40;47.00;;;;;;5034123;28;20196;-78
2022/08/17 09:49:20;;;;;;;3.88;3.58;;;26.40;47.00;;;;;;5034144;28;20250;-78
2022/08/17 09:51:48;;;;;;;3.95;3.67;;;26.40;47.20;;;;;;5035882;28;20182;-78
2022/08/17 09:54:19;;;;;;;4.30;4.00;;;26.40;47.30;;;;;;5033937;28;20669;-78
2022/08/17 09:56:52;;;;;;;3.92;3.63;;;26.40;47.30;;;;;;5034389;28;20204;-78
2022/08/17 09:59:31;;;;;;;4.65;3.80;;;26.40;47.20;;;;;;5034662;28;20223;-78
2022/08/17 10:02:02;;;;;;;3.97;3.60;;;26.40;47.10;;;;;;5033862;28;20671;-78
2022/08/17 10:04:44;;;;;;;4.53;4.15;;;26.40;47.30;;;;;;5034066;28;20642;-76
2022/08/17 10:07:14;;;;;;;5.13;3.50;;;26.40;47.30;;;;;;5034108;28;20249;-79
2022/08/17 10:09:54;;;;;;;4.20;3.80;;;26.40;47.10;;;;;;5036196;28;20286;-76
2022/08/17 10:12:27;;;;;;;4.00;3.70;;;26.40;47.10;;;;;;5035215;28;20314;-79
2022/08/17 10:15:20;;;;;;;4.18;3.83;;;26.50;47.10;;;;;;5035065;28;20195;-76
2022/08/17 10:17:56;;;;;;;4.15;3.85;;;26.50;47.00;;;;;;5033725;28;20215;-77
2022/08/17 10:20:26;;;;;;;3.95;3.65;;;26.50;46.80;;;;;;5034664;28;20530;-76
2022/08/17 10:26:14;;;;;;;3.83;3.53;;;26.50;46.60;;;;;;4993263;28;20192;-78
2022/08/17 10:28:45;;;;;;;3.75;3.45;;;26.50;46.50;;;;;;4993177;28;20715;-78
2022/08/17 10:31:12;;;;;;;3.90;3.60;;;26.50;46.60;;;;;;5018432;28;20294;-76
2022/08/17 10:33:46;;;;;;;3.90;3.60;;;26.50;46.60;;;;;;5016850;28;20192;-78
2022/08/17 10:36:17;;;;;;;3.88;3.58;;;26.50;46.60;;;;;;5017514;28;20184;-76
2022/08/17 10:38:45;;;;;;;4.30;3.90;;;26.50;46.70;;;;;;5033298;28;20216;-76
2022/08/17 10:41:20;;;;;;;3.90;3.60;;;26.50;46.70;;;;;;5033378;28;20201;-76
2022/08/17 10:43:57;;;;;;;3.78;3.47;;;26.50;46.70;;;;;;5016746;28;20211;-77
2022/08/17 10:46:27;;;;;;;4.15;3.75;;;26.50;46.60;;;;;;5033111;28;20210;-76
2022/08/17 10:49:28;;;;;;;3.90;3.50;;;26.50;46.60;;;;;;5033187;28;20756;-76
2022/08/17 10:51:57;;;;;;;3.63;3.33;;;26.50;46.60;;;;;;5033002;28;20310;-76
2022/08/17 10:54:39;;;;;;;3.78;3.47;;;26.40;46.50;;;;;;5032930;28;20200;-76
2022/08/17 10:57:40;;;;;;;3.70;3.50;;;26.40;46.50;;;;;;5032995;28;20183;-76
2022/08/17 11:00:14;;;;;;;3.90;3.50;;;26.40;46.50;;;;;;5033253;28;20199;-77
2022/08/17 11:02:49;;;;;;;3.70;3.40;;;26.40;46.50;;;;;;5032827;28;20239;-77
2022/08/17 11:05:40;;;;;;;3.55;3.35;;;26.40;46.50;;;;;;5034202;28;20270;-78
2022/08/17 11:08:53;;;;;;;3.63;3.33;;;26.40;46.40;;;;;;5032771;28;20215;-78
2022/08/17 11:11:37;;;;;;;3.78;3.58;;;26.40;46.50;;;;;;5028347;28;20203;-76
2022/08/17 11:14:15;;;;;;;3.72;3.42;;;26.40;46.60;;;;;;5033040;28;20184;-78
2022/08/17 11:16:47;;;;;;;3.67;3.40;;;26.40;46.60;;;;;;5033581;28;20705;-78
2022/08/17 11:19:33;;;;;;;3.90;3.60;;;26.40;46.50;;;;;;5034941;28;20262;-78
2022/08/17 11:22:28;;;;;;;3.72;3.42;;;26.40;46.50;;;;;;5033059;28;20634;-78
2022/08/17 11:24:55;;;;;;;3.78;3.47;;;26.40;47.00;;;;;;4997819;28;20200;-78
2022/08/17 11:27:26;;;;;;;3.90;3.50;;;26.50;46.40;;;;;;5032870;28;20198;-76
2022/08/17 11:29:54;;;;;;;3.80;3.50;;;26.50;46.50;;;;;;5032874;28;20257;-79
2022/08/17 11:32:31;;;;;;;3.70;3.50;;;26.50;46.50;;;;;;5033552;28;20219;-76
2022/08/17 11:35:24;;;;;;;3.85;3.53;;;26.40;46.50;;;;;;5037336;28;20643;-79
2022/08/17 11:37:57;;;;;;;3.65;3.35;;;26.40;46.50;;;;;;5021330;28;20294;-79
2022/08/17 11:40:48;;;;;;;3.88;3.47;;;26.40;46.60;;;;;;5038370;28;20282;-77
2022/08/17 11:43:27;;;;;;;3.47;3.28;;;26.40;46.60;;;;;;5038585;28;20283;-75
2022/08/17 11:46:01;;;;;;;3.70;3.40;;;26.40;46.70;;;;;;5036932;28;20250;-77
2022/08/17 11:54:11;;;;;;;3.38;3.17;;;26.40;46.80;;;;;;5031962;28;20266;-75
2022/08/17 11:56:44;;;;;;;3.38;3.17;;;26.40;46.80;;;;;;5037796;28;20206;-75
2022/08/17 11:59:48;;;;;;;3.58;3.28;;;26.30;46.80;;;;;;5036175;28;20717;-77
2022/08/17 12:02:41;;;;;;;3.50;3.25;;;26.30;46.80;;;;;;5036270;28;20259;-77
2022/08/17 12:05:36;;;;;;;3.40;3.20;;;26.40;46.80;;;;;;5036248;28;20223;-75
2022/08/17 12:08:16;;;;;;;3.20;3.00;;;26.30;46.80;;;;;;5035685;28;20273;-75
2022/08/17 12:11:06;;;;;;;3.40;3.10;;;26.30;46.70;;;;;;5036493;28;20188;-76
2022/08/17 12:13:36;;;;;;;3.67;3.47;;;26.30;46.60;;;;;;5034404;28;20206;-76
2022/08/17 12:16:03;;;;;;;3.83;3.53;;;26.40;46.70;;;;;;5035614;28;20682;-75
2022/08/17 12:18:32;;;;;;;3.20;3.00;;;26.40;46.60;;;;;;5036803;28;20216;-75
2022/08/17 12:21:39;;;;;;;3.30;3.10;;;26.40;46.50;;;;;;5035314;28;20223;-75
2022/08/17 12:24:12;;;;;;;3.58;3.30;;;26.50;46.40;;;;;;5013024;28;20223;-76
2022/08/17 12:26:39;;;;;;;3.60;3.30;;;26.50;46.20;;;;;;5035460;28;20701;-74
2022/08/17 12:29:10;;;;;;;3.13;2.92;;;26.50;46.20;;;;;;5035075;28;20255;-78
2022/08/17 12:31:43;;;;;;;3.25;3.05;;;26.50;46.10;;;;;;5035901;28;20192;-76
2022/08/17 12:34:14;;;;;;;3.22;3.03;;;26.50;46.10;;;;;;5035158;28;20697;-75
2022/08/17 12:36:42;;;;;;;3.42;3.22;;;26.60;46.20;;;;;;5036170;28;20644;-78
2022/08/17 12:39:08;;;;;;;3.80;3.53;;;26.60;46.10;;;;;;5035270;28;20208;-77
2022/08/17 12:41:37;;;;;;;3.40;3.20;;;26.60;46.00;;;;;;5035159;28;20202;-77
2022/08/17 12:44:08;;;;;;;3.38;3.17;;;26.70;46.00;;;;;;5035015;28;20674;-75
2022/08/17 12:46:46;;;;;;;3.13;2.92;;;26.70;45.90;;;;;;5035051;28;20203;-78
2022/08/17 12:49:35;;;;;;;3.10;2.90;;;26.70;45.90;;;;;;5035942;28;20578;-77
2022/08/17 12:52:07;;;;;;;3.03;2.83;;;26.70;45.80;;;;;;5035271;28;20202;-77
2022/08/17 12:54:57;;;;;;;3.08;2.88;;;26.70;45.80;;;;;;5034943;28;20199;-77
2022/08/17 12:57:26;;;;;;;3.20;3.00;;;26.70;45.70;;;;;;5032334;28;20203;-76
2022/08/17 12:59:56;;;;;;;3.55;3.25;;;26.70;45.70;;;;;;5035122;28;20191;-76
2022/08/17 13:02:32;;;;;;;3.20;3.00;;;26.70;45.70;;;;;;5036434;28;20298;-76
2022/08/17 13:05:00;;;;;;;3.25;3.00;;;26.70;45.70;;;;;;5036567;28;20278;-77
2022/08/17 13:07:34;;;;;;;3.10;2.90;;;26.80;45.70;;;;;;5035912;28;20204;-76
2022/08/17 13:10:01;;;;;;;3.25;3.05;;;26.70;45.60;;;;;;5036098;28;20245;-76
2022/08/17 13:12:30;;;;;;;3.20;3.00;;;26.80;45.60;;;;;;5035803;28;20250;-76
2022/08/17 13:14:57;;;;;;;3.03;2.83;;;26.80;45.60;;;;;;5035869;28;20271;-75
2022/08/17 13:17:34;;;;;;;3.58;3.30;;;26.80;45.60;;;;;;5034377;28;20223;-76
2022/08/17 13:20:05;;;;;;;3.10;2.90;;;26.70;45.50;;;;;;5034829;28;20214;-76
2022/08/17 13:22:32;;;;;;;3.45;3.15;;;26.80;45.60;;;;;;5034625;28;20192;-75
2022/08/17 13:25:04;;;;;;;3.03;2.83;;;26.80;45.50;;;;;;5034593;28;20206;-77
2022/08/17 13:27:31;;;;;;;3.10;2.90;;;26.80;45.50;;;;;;5034833;28;20223;-76
2022/08/17 13:29:58;;;;;;;3.33;3.10;;;26.80;45.50;;;;;;5034346;28;20211;-75
2022/08/17 13:32:38;;;;;;;3.40;3.20;;;26.80;45.50;;;;;;5035218;28;20195;-78
2022/08/17 13:35:44;;;;;;;2.70;2.60;;;26.80;45.50;;;;;;5035290;28;20254;-76